Torrington, WY (82240)

1:02 PM MDT on July 28, 2015 (GMT -0600)
Torrington Main St Mkt | | Change Station
CLOSE
Current Station
Personal Weather Station
Location: Torrington, WY
Elevation: 4094 ft
Nearby Weather Stations
Active Advisory: Fire Weather Warning

Elev 4094 ft 42.06 °N, 104.18 °W | Updated 7 minutes ago

Clear
Clear
79.6 °F
Feels Like 78 °F
N
0.0
Wind Variable Wind from WNW
Gusts 3.0 mph

Today
High -- | Low -- °F
--% Chance of Precip.
Yesterday
High -- | Low -- °F
Precip. -- in
5:45 AM 8:20 PM
Waxing Gibbous, 91% visible
Pressure 29.97 in
Visibility 10.0 miles
Clouds Clear
Heat Index 78 °F
Dew Point 30 °F
Humidity 16%
Rainfall 0.00 in
Snow Depth Not available.
UV 12 out of 12
Pollen 6.70 out of 12
Air Quality Not available.
Flu Activity Not available.
METAR KTOR 281853Z AUTO 33011G18KT 10SM CLR 25/M04 A3011 RMK AO2 SLP148 T02501044

More Conditions Fewer Conditions

Pressure 29.97 in
Visibility 10.0 miles
Clouds Clear
Heat Index 78 °F
Dew Point 30 °F
Humidity 16%
Rainfall 0.00 in
Snow Depth Not available.
UV 12 out of 12
Pollen 6.70 out of 12
Air Quality Not available.
Flu Activity Not available.
METAR KTOR 281853Z AUTO 33011G18KT 10SM CLR 25/M04 A3011 RMK AO2 SLP148 T02501044

More Conditions Fewer Conditions

10-Day Weather Forecast

×

Almanac

Astronomy

Jul. 28, 2015 Rise Set
Actual Time
Civil Twilight
Nautical Twilight
Astronomical Twilight
Moon
Length of Visible Light
Length of Day
Tomorrow will be .
, % of the Moon is Illuminated

Today's Extremes

State Highs State Lows

Community

WunderPhotos

Upload Photos

1,841,913 photos uploaded!

WunderBlogs® & News

Nearby

Air Quality

  Air Quality AQ Index Pollutant
Not available.

Snow Depth

Station Depth Elevation

Earthquake Activity

City Distance Mag. Time & Date
Minimum magnitude displayed is 2.5.

Coastal Water Temperatures

Place Temperature

Stations

Nearby Weather Stations

Station Location Temp. Windchill Dew Point Humidity Wind Precip. Elev Updated Type
                   
Fire Weather Warning
Statement as of 12:46 PM MDT on July 28, 2015

... Red flag warning in effect until 7 PM MDT this evening for low
humidities and gusty winds for fire weather zones 301 and 310...

The National Weather Service in Cheyenne has issued a red flag
warning... which is in effect until 7 PM MDT this evening.

* Affected area... fire weather zones 301 and 310.

* Wind... west to northwest winds gusting to 25 to 35 mph.

* Humidity... 12-15 percent.

* Impacts... any fires that develop will likely spread rapidly.
Outdoor burning is not recommended.

Precautionary/preparedness actions...

A red flag warning means that critical fire weather conditions
are either occurring now... or will shortly. A combination of
strong winds... low relative humidity... and warm temperatures may
lead to extreme fire behavior.